Time;durP1;ratioP1;P1;durP2;ratioP2;P2;SDS_P1;SDS_P2;PMS_P1;PMS_P2;Temp;Humidity;BMP_temperature;BMP_pressure;BME280_temperature;BME280_humidity;BME280_pressure;Samples;Min_cycle;Max_cycle;Signal;HPM_P1;HPM_P2
2023/01/30 00:02:33;;;;;;;21.10;13.50;;;1.60;99.90;;;;;;10346213;28;20759;-69
2023/01/30 00:07:34;;;;;;;20.43;13.73;;;1.60;99.90;;;;;;10354262;28;20686;-68
2023/01/30 00:12:34;;;;;;;19.77;14.30;;;1.60;99.90;;;;;;10368032;28;20236;-68
2023/01/30 00:17:35;;;;;;;19.80;14.03;;;1.60;99.90;;;;;;10358634;28;20355;-68
2023/01/30 00:22:35;;;;;;;20.00;13.57;;;1.60;99.90;;;;;;10339621;28;20243;-69
2023/01/30 00:27:36;;;;;;;18.77;13.70;;;1.60;99.90;;;;;;10361354;28;20240;-67
2023/01/30 00:32:37;;;;;;;21.30;13.90;;;1.60;99.90;;;;;;10363392;28;20237;-68
2023/01/30 00:37:37;;;;;;;22.40;14.63;;;1.60;99.90;;;;;;10365246;28;20304;-67
2023/01/30 00:47:58;;;;;;;20.90;13.80;;;1.60;99.90;;;;;;10364536;28;20224;-67
2023/01/30 00:52:59;;;;;;;20.57;12.60;;;1.50;99.90;;;;;;10364824;28;20423;-68
2023/01/30 00:57:59;;;;;;;18.83;13.27;;;1.50;99.90;;;;;;10359892;28;20225;-68
2023/01/30 01:03:00;;;;;;;19.20;13.00;;;1.50;99.90;;;;;;10343397;28;20225;-67
2023/01/30 01:08:01;;;;;;;20.60;13.70;;;1.50;99.90;;;;;;10352460;28;20327;-67
2023/01/30 01:13:02;;;;;;;22.63;13.07;;;1.50;99.90;;;;;;10362450;28;20225;-67
2023/01/30 01:18:03;;;;;;;19.27;12.27;;;1.60;99.90;;;;;;10366432;28;20217;-67
2023/01/30 01:23:03;;;;;;;17.17;12.77;;;1.70;99.90;;;;;;10348041;28;20225;-67
2023/01/30 01:28:04;;;;;;;17.80;12.60;;;1.70;99.90;;;;;;10362606;28;20731;-67
2023/01/30 01:33:05;;;;;;;19.67;12.97;;;1.70;99.90;;;;;;10358435;28;20225;-68
2023/01/30 01:38:05;;;;;;;19.93;13.13;;;1.70;99.90;;;;;;10350106;28;20676;-68
2023/01/30 01:43:20;;;;;;;19.13;12.50;;;1.70;99.90;;;;;;10362067;28;20225;-67
2023/01/30 01:48:31;;;;;;;18.67;12.93;;;1.70;99.90;;;;;;10361930;28;20315;-67
2023/01/30 01:53:38;;;;;;;18.03;12.27;;;1.70;99.90;;;;;;10364795;28;20878;-67
2023/01/30 01:58:46;;;;;;;18.60;12.70;;;1.70;99.90;;;;;;10346272;28;20307;-67
2023/01/30 02:03:53;;;;;;;18.93;13.10;;;1.80;99.90;;;;;;10366023;28;20287;-72
2023/01/30 02:08:58;;;;;;;16.87;11.93;;;1.80;99.90;;;;;;10369882;28;20656;-73
2023/01/30 02:14:00;;;;;;;18.77;12.07;;;1.80;99.90;;;;;;10356247;28;20251;-71
2023/01/30 02:19:00;;;;;;;20.53;12.73;;;1.80;99.90;;;;;;10368660;28;20226;-71
2023/01/30 02:24:46;;;;;;;17.87;11.73;;;1.80;99.90;;;;;;10360017;28;20237;-71
2023/01/30 02:30:03;;;;;;;18.57;12.07;;;1.90;99.90;;;;;;10329324;28;20587;-69
2023/01/30 02:35:24;;;;;;;17.60;12.03;;;1.90;99.90;;;;;;10371521;28;20260;-69
2023/01/30 02:40:30;;;;;;;17.63;11.23;;;1.90;99.90;;;;;;10347391;28;20225;-69
2023/01/30 02:46:16;;;;;;;16.77;11.57;;;1.90;99.90;;;;;;10369558;28;20397;-70
2023/01/30 02:51:25;;;;;;;17.00;11.90;;;1.90;99.90;;;;;;10360289;28;20234;-70
2023/01/30 02:56:26;;;;;;;19.63;12.20;;;2.00;99.90;;;;;;10368096;28;20229;-70
2023/01/30 03:01:42;;;;;;;17.67;11.73;;;2.00;99.90;;;;;;10366246;28;20226;-71
2023/01/30 03:07:20;;;;;;;16.83;11.40;;;2.00;99.90;;;;;;10365216;28;20221;-69
2023/01/30 03:12:47;;;;;;;16.60;11.27;;;2.10;99.90;;;;;;10350986;28;20239;-70
2023/01/30 03:17:48;;;;;;;16.93;12.07;;;2.10;99.90;;;;;;10366598;28;20221;-71
2023/01/30 03:22:49;;;;;;;18.00;10.97;;;2.10;99.90;;;;;;10363364;28;20217;-70
2023/01/30 03:27:51;;;;;;;15.20;10.67;;;2.10;99.90;;;;;;10365381;28;20230;-70
2023/01/30 03:32:52;;;;;;;16.87;11.57;;;2.10;99.90;;;;;;10365266;28;20238;-71
2023/01/30 03:37:53;;;;;;;15.43;10.63;;;2.00;99.90;;;;;;10368288;28;20785;-70
2023/01/30 03:42:53;;;;;;;16.63;10.70;;;2.00;99.90;;;;;;10361858;28;20227;-70
2023/01/30 03:47:54;;;;;;;18.63;11.93;;;2.00;99.90;;;;;;10366164;28;20267;-70
2023/01/30 03:52:54;;;;;;;16.77;11.60;;;2.00;99.90;;;;;;10366824;28;20233;-70
2023/01/30 03:57:56;;;;;;;17.07;11.67;;;2.00;99.90;;;;;;10362115;28;20244;-69
2023/01/30 04:02:57;;;;;;;16.23;11.17;;;2.00;99.90;;;;;;10366629;28;20251;-71
2023/01/30 04:07:58;;;;;;;18.17;12.00;;;2.00;99.90;;;;;;10357716;28;20935;-71
2023/01/30 04:12:59;;;;;;;18.93;12.50;;;2.00;99.90;;;;;;10366273;28;20235;-73
2023/01/30 04:17:59;;;;;;;18.67;12.33;;;2.00;99.90;;;;;;10359650;28;20224;-70
2023/01/30 04:23:00;;;;;;;19.57;13.40;;;2.00;99.90;;;;;;10360844;28;20219;-70
2023/01/30 04:28:00;;;;;;;22.27;12.90;;;2.00;99.90;;;;;;10347421;28;20637;-71
2023/01/30 04:33:01;;;;;;;22.20;13.17;;;1.90;99.90;;;;;;10367017;28;20634;-70
2023/01/30 04:38:02;;;;;;;22.20;13.27;;;1.90;99.90;;;;;;10367392;28;20225;-70
2023/01/30 04:43:02;;;;;;;19.53;13.33;;;1.90;99.90;;;;;;10360528;28;20232;-71
2023/01/30 04:48:03;;;;;;;22.00;13.63;;;1.90;99.90;;;;;;10362305;28;20233;-69
2023/01/30 04:53:04;;;;;;;18.77;13.37;;;2.00;99.90;;;;;;10332663;28;20275;-69
2023/01/30 04:58:04;;;;;;;20.70;13.50;;;2.00;99.90;;;;;;10346145;28;20889;-70
2023/01/30 05:03:06;;;;;;;20.57;12.83;;;2.00;99.90;;;;;;10341956;28;20247;-67
2023/01/30 05:08:06;;;;;;;21.33;13.30;;;2.00;99.90;;;;;;10346251;28;20226;-68
2023/01/30 05:13:07;;;;;;;24.27;14.50;;;2.00;99.90;;;;;;10355695;28;20226;-68
2023/01/30 05:18:07;;;;;;;22.63;14.87;;;2.00;99.90;;;;;;10361673;28;20217;-68
2023/01/30 05:23:08;;;;;;;23.43;14.23;;;2.00;99.90;;;;;;10359939;28;20644;-68
2023/01/30 05:28:08;;;;;;;23.60;14.17;;;1.90;99.90;;;;;;10358340;28;20233;-69
2023/01/30 05:33:09;;;;;;;22.20;14.87;;;1.80;99.90;;;;;;10348124;28;20228;-69
2023/01/30 05:38:09;;;;;;;22.87;14.53;;;1.80;99.90;;;;;;10358396;28;20911;-69
2023/01/30 05:43:10;;;;;;;22.97;14.27;;;1.90;99.90;;;;;;10352576;28;20606;-69
2023/01/30 05:48:10;;;;;;;23.53;14.60;;;1.90;99.90;;;;;;10356578;28;20220;-69
2023/01/30 05:53:12;;;;;;;21.03;13.93;;;1.90;99.90;;;;;;10355857;28;20759;-70
2023/01/30 05:58:13;;;;;;;21.20;13.93;;;1.90;99.90;;;;;;10336775;28;20297;-69
2023/01/30 06:03:14;;;;;;;20.57;13.60;;;1.90;99.90;;;;;;10344670;28;20225;-69
2023/01/30 06:08:14;;;;;;;21.60;14.03;;;2.00;99.90;;;;;;10356840;28;20727;-70
2023/01/30 06:13:15;;;;;;;19.83;13.67;;;2.10;99.90;;;;;;10360960;28;20283;-70
2023/01/30 06:18:16;;;;;;;20.87;13.60;;;2.10;99.90;;;;;;10349056;28;20213;-72
2023/01/30 06:23:17;;;;;;;20.37;13.57;;;2.10;99.90;;;;;;10349043;28;20229;-71
2023/01/30 06:28:19;;;;;;;21.63;14.03;;;2.10;99.90;;;;;;10346938;28;20221;-70
2023/01/30 06:33:19;;;;;;;21.00;12.93;;;2.10;99.90;;;;;;10348722;28;20233;-71
2023/01/30 06:38:20;;;;;;;17.13;12.10;;;2.10;99.90;;;;;;10361231;28;20229;-70
2023/01/30 06:43:20;;;;;;;17.83;11.63;;;2.20;99.90;;;;;;10340207;28;20328;-71
2023/01/30 06:48:21;;;;;;;14.80;10.20;;;2.20;99.90;;;;;;10341397;28;20257;-72
2023/01/30 06:53:24;;;;;;;18.53;11.97;;;2.30;99.90;;;;;;10355268;28;20225;-68
2023/01/30 06:58:24;;;;;;;17.47;10.93;;;2.40;99.90;;;;;;10338567;28;20256;-69
2023/01/30 07:03:25;;;;;;;17.23;9.93;;;2.40;99.90;;;;;;10337210;28;20278;-68
2023/01/30 07:08:25;;;;;;;15.50;10.70;;;2.50;99.90;;;;;;10347846;28;20234;-68
2023/01/30 07:13:26;;;;;;;16.60;11.10;;;2.50;99.90;;;;;;10358133;28;20221;-67
2023/01/30 07:18:27;;;;;;;15.63;10.27;;;2.50;99.90;;;;;;10347120;28;20226;-68
2023/01/30 07:23:27;;;;;;;16.47;11.20;;;2.50;99.90;;;;;;10354451;28;20221;-68
2023/01/30 07:28:28;;;;;;;15.50;10.70;;;2.50;99.90;;;;;;10347825;28;20236;-68
2023/01/30 07:33:28;;;;;;;14.90;10.60;;;2.50;99.90;;;;;;10345406;28;20239;-68
2023/01/30 07:38:29;;;;;;;16.97;10.57;;;2.50;99.90;;;;;;10341585;28;20304;-68
2023/01/30 07:43:29;;;;;;;16.10;10.80;;;2.50;99.90;;;;;;10344496;28;20233;-68
2023/01/30 07:48:30;;;;;;;15.30;10.30;;;2.50;99.90;;;;;;10336544;28;20233;-68
2023/01/30 07:53:30;;;;;;;14.60;10.53;;;2.50;99.90;;;;;;10343050;28;20237;-68
2023/01/30 07:58:31;;;;;;;17.23;10.70;;;2.50;99.90;;;;;;10344541;28;20245;-69
2023/01/30 08:03:31;;;;;;;15.33;9.97;;;2.50;99.90;;;;;;10352664;28;20563;-69
2023/01/30 08:08:32;;;;;;;16.70;10.47;;;2.50;99.90;;;;;;10345417;28;20280;-67
2023/01/30 08:13:33;;;;;;;15.10;9.70;;;2.60;99.90;;;;;;10354979;28;20655;-68
2023/01/30 08:18:34;;;;;;;15.83;10.33;;;2.50;99.90;;;;;;10351945;28;20275;-67
2023/01/30 08:23:35;;;;;;;14.43;9.87;;;2.50;99.90;;;;;;10348999;28;20229;-68
2023/01/30 08:28:35;;;;;;;14.37;9.70;;;2.50;99.90;;;;;;10334768;28;20222;-67
2023/01/30 08:33:36;;;;;;;15.43;9.93;;;2.50;99.90;;;;;;10340983;28;20646;-68
2023/01/30 08:38:37;;;;;;;14.43;9.90;;;2.50;99.90;;;;;;10345553;28;20230;-69
2023/01/30 08:43:37;;;;;;;15.83;9.73;;;2.60;99.90;;;;;;10358232;28;20791;-69
2023/01/30 08:48:40;;;;;;;15.60;10.60;;;2.60;99.90;;;;;;10345771;28;20312;-68
2023/01/30 08:53:40;;;;;;;14.70;10.03;;;2.60;99.90;;;;;;10352809;28;20478;-68
2023/01/30 08:58:42;;;;;;;13.97;9.93;;;2.60;99.90;;;;;;10350216;28;20226;-68
2023/01/30 09:03:43;;;;;;;12.90;10.20;;;2.70;99.90;;;;;;10347340;28;20222;-67
2023/01/30 09:08:43;;;;;;;13.57;9.67;;;2.70;99.90;;;;;;10345585;28;20317;-67
2023/01/30 09:13:44;;;;;;;12.83;9.03;;;2.70;99.90;;;;;;10342494;28;20221;-68
2023/01/30 09:18:45;;;;;;;13.93;9.20;;;2.70;99.90;;;;;;10349387;28;20295;-68
2023/01/30 09:23:45;;;;;;;16.00;9.47;;;2.80;99.90;;;;;;10342484;28;20247;-68
2023/01/30 09:28:46;;;;;;;12.87;9.70;;;2.80;99.90;;;;;;10327975;28;20229;-67
2023/01/30 09:33:46;;;;;;;13.70;9.47;;;2.90;99.90;;;;;;10347729;28;20233;-72
2023/01/30 09:38:47;;;;;;;11.17;8.27;;;3.00;99.90;;;;;;10344971;28;20220;-68
2023/01/30 09:44:09;;;;;;;9.63;7.23;;;3.10;99.90;;;;;;10340462;28;20237;-69
2023/01/30 09:49:24;;;;;;;10.10;6.97;;;3.20;99.90;;;;;;10344531;28;20280;-68
2023/01/30 09:54:29;;;;;;;8.97;6.60;;;3.40;99.90;;;;;;10350202;28;20632;-68
2023/01/30 09:59:38;;;;;;;8.47;6.87;;;3.40;99.90;;;;;;10343232;28;20316;-69
2023/01/30 10:04:46;;;;;;;9.27;6.57;;;3.50;99.90;;;;;;10350123;28;20312;-71
2023/01/30 10:09:58;;;;;;;7.47;5.77;;;3.60;99.90;;;;;;10356322;28;20224;-69
2023/01/30 10:15:23;;;;;;;7.40;5.00;;;3.60;99.90;;;;;;10355977;28;20225;-70
2023/01/30 10:20:38;;;;;;;6.17;5.00;;;3.70;99.90;;;;;;10350229;28;21267;-69
2023/01/30 10:25:50;;;;;;;5.97;5.07;;;3.80;99.90;;;;;;10354698;28;20220;-70
2023/01/30 10:30:53;;;;;;;7.03;5.37;;;3.90;99.90;;;;;;10349990;28;20365;-69
2023/01/30 10:36:10;;;;;;;7.57;5.23;;;4.00;99.90;;;;;;10353067;28;20218;-69
2023/01/30 10:41:20;;;;;;;7.63;4.43;;;4.20;99.90;;;;;;10351504;28;20237;-69
2023/01/30 10:46:20;;;;;;;5.93;4.70;;;4.40;99.90;;;;;;10366258;28;20281;-69
2023/01/30 10:51:45;;;;;;;5.73;4.43;;;4.60;99.90;;;;;;10348970;28;20596;-69
2023/01/30 10:57:06;;;;;;;3.80;3.40;;;5.10;99.90;;;;;;10350798;28;20696;-69
2023/01/30 11:02:24;;;;;;;3.57;3.27;;;7.40;99.90;;;;;;10350370;28;20666;-70
2023/01/30 11:07:30;;;;;;;3.87;3.20;;;7.10;99.90;;;;;;10353983;28;20283;-69
2023/01/30 11:12:30;;;;;;;4.00;3.20;;;6.30;99.90;;;;;;10343050;28;20265;-69
2023/01/30 11:17:40;;;;;;;4.27;3.33;;;5.80;99.90;;;;;;10361413;28;20237;-69
2023/01/30 11:22:50;;;;;;;6.60;3.63;;;5.50;99.90;;;;;;10348516;28;20308;-69
2023/01/30 11:27:58;;;;;;;4.10;3.20;;;5.40;99.90;;;;;;10351800;28;20280;-70
2023/01/30 11:33:15;;;;;;;3.33;3.03;;;5.70;99.90;;;;;;10341207;28;20307;-70
2023/01/30 11:38:27;;;;;;;3.90;3.13;;;5.80;99.90;;;;;;10355577;28;20221;-69
2023/01/30 11:43:28;;;;;;;3.60;3.20;;;5.70;99.90;;;;;;10358268;28;20804;-69
2023/01/30 11:48:32;;;;;;;3.83;3.43;;;5.60;99.90;;;;;;10346512;28;20222;-69
2023/01/30 11:54:01;;;;;;;4.13;3.50;;;5.40;99.90;;;;;;10352861;28;20217;-68
2023/01/30 11:59:06;;;;;;;5.43;3.63;;;5.40;99.90;;;;;;10348487;28;20226;-69
2023/01/30 12:04:09;;;;;;;3.50;3.20;;;5.50;99.90;;;;;;10348590;28;20221;-68
2023/01/30 12:09:31;;;;;;;3.10;2.90;;;5.50;99.90;;;;;;10354380;28;20280;-68
2023/01/30 12:14:44;;;;;;;3.40;3.03;;;5.50;99.90;;;;;;10328742;28;20227;-69
2023/01/30 12:20:02;;;;;;;2.93;2.70;;;5.50;99.90;;;;;;10345640;28;20221;-68
2023/01/30 12:25:21;;;;;;;4.10;2.90;;;5.50;99.90;;;;;;10359184;28;20793;-69
2023/01/30 12:30:33;;;;;;;2.90;2.47;;;5.50;99.90;;;;;;10355435;28;20228;-66
2023/01/30 12:36:10;;;;;;;3.43;2.60;;;5.80;99.90;;;;;;10360611;28;20218;-66
2023/01/30 12:41:22;;;;;;;2.87;2.50;;;6.10;99.90;;;;;;10362286;28;20244;-66
2023/01/30 12:46:59;;;;;;;3.40;2.40;;;6.00;99.90;;;;;;10366929;28;20382;-66
2023/01/30 12:52:36;;;;;;;3.23;2.20;;;6.00;99.90;;;;;;10349796;28;20230;-67
2023/01/30 12:57:52;;;;;;;2.33;2.00;;;6.00;99.90;;;;;;10343398;28;20222;-67
2023/01/30 13:03:01;;;;;;;2.40;2.20;;;6.00;99.90;;;;;;10348429;28;20764;-65
2023/01/30 13:08:12;;;;;;;3.97;2.07;;;6.00;99.90;;;;;;10356142;28;20679;-67
2023/01/30 13:13:41;;;;;;;1.97;1.80;;;6.10;99.90;;;;;;10340624;28;20237;-67
2023/01/30 13:18:54;;;;;;;1.90;1.67;;;6.10;99.90;;;;;;10356764;28;20327;-68
2023/01/30 13:24:03;;;;;;;2.83;2.20;;;6.20;99.90;;;;;;10354961;28;20213;-68
2023/01/30 13:29:35;;;;;;;2.03;1.87;;;6.20;99.90;;;;;;10357882;28;20306;-67
2023/01/30 13:34:42;;;;;;;3.63;2.33;;;6.00;99.90;;;;;;10350157;28;20274;-67
2023/01/30 13:39:54;;;;;;;2.43;2.23;;;6.10;99.90;;;;;;10351389;28;20277;-67
2023/01/30 13:44:56;;;;;;;2.70;2.50;;;6.20;99.90;;;;;;10357826;28;20233;-67
2023/01/30 13:50:18;;;;;;;4.83;3.00;;;6.30;99.90;;;;;;10340160;28;20221;-68
2023/01/30 13:55:32;;;;;;;3.27;2.97;;;6.30;99.90;;;;;;10365565;28;20760;-67
2023/01/30 14:00:34;;;;;;;3.50;3.20;;;6.20;99.90;;;;;;10360144;28;20241;-67
2023/01/30 14:05:51;;;;;;;4.13;2.90;;;6.20;99.90;;;;;;10367676;28;20217;-67
2023/01/30 14:10:56;;;;;;;3.90;3.50;;;6.00;99.90;;;;;;10367543;28;20239;-68
2023/01/30 14:15:59;;;;;;;5.87;4.23;;;6.00;99.90;;;;;;10352702;28;20214;-69
2023/01/30 14:21:19;;;;;;;4.97;4.00;;;5.90;99.90;;;;;;10366291;28;20221;-68
2023/01/30 14:26:47;;;;;;;5.23;4.10;;;5.90;99.90;;;;;;10357197;28;20225;-68
2023/01/30 14:31:49;;;;;;;5.17;4.00;;;5.70;99.90;;;;;;10365799;28;20608;-69
2023/01/30 14:36:51;;;;;;;6.03;4.40;;;5.50;99.90;;;;;;10360139;28;20221;-70
2023/01/30 14:42:23;;;;;;;4.80;4.30;;;5.40;99.90;;;;;;10356963;28;20230;-69
2023/01/30 14:47:24;;;;;;;9.40;5.20;;;5.30;99.90;;;;;;10361109;28;20316;-69
2023/01/30 14:52:49;;;;;;;10.57;5.07;;;5.40;99.90;;;;;;10365374;28;20264;-70
2023/01/30 14:57:58;;;;;;;9.13;4.93;;;5.40;99.90;;;;;;10359242;28;20255;-68
2023/01/30 15:03:02;;;;;;;8.50;5.13;;;5.40;99.90;;;;;;10356266;28;20283;-68
2023/01/30 15:08:13;;;;;;;7.93;5.13;;;5.40;99.90;;;;;;10348029;28;20730;-68
2023/01/30 15:13:29;;;;;;;7.70;4.77;;;5.50;99.90;;;;;;10354432;28;20223;-67
2023/01/30 15:19:01;;;;;;;9.00;5.13;;;5.50;99.90;;;;;;10347820;28;20624;-68
2023/01/30 15:24:07;;;;;;;9.70;4.97;;;5.50;99.90;;;;;;10360399;28;20232;-68
2023/01/30 15:29:30;;;;;;;9.07;4.73;;;5.60;99.90;;;;;;10356437;28;20232;-68
2023/01/30 15:34:33;;;;;;;11.47;4.00;;;5.60;99.90;;;;;;10346815;28;20272;-67
2023/01/30 15:39:33;;;;;;;8.17;4.10;;;5.60;99.90;;;;;;10347061;28;20293;-68
2023/01/30 15:44:49;;;;;;;5.63;3.97;;;5.60;99.90;;;;;;10346090;28;20665;-69
2023/01/30 15:50:01;;;;;;;6.90;3.60;;;5.60;99.90;;;;;;10351571;28;20333;-67
2023/01/30 15:55:02;;;;;;;7.60;3.93;;;5.50;99.90;;;;;;10350549;28;20691;-68
2023/01/30 16:00:16;;;;;;;7.47;4.13;;;5.40;99.90;;;;;;10350472;28;20218;-68
2023/01/30 16:05:22;;;;;;;7.87;3.43;;;5.30;99.90;;;;;;10335765;28;20220;-68
2023/01/30 16:10:25;;;;;;;6.17;2.50;;;5.10;99.90;;;;;;10350549;28;20296;-69
2023/01/30 16:15:32;;;;;;;9.37;3.37;;;4.90;99.90;;;;;;10353900;28;20222;-68
2023/01/30 16:20:54;;;;;;;6.40;3.10;;;4.70;99.90;;;;;;10344706;28;20250;-69
2023/01/30 16:25:55;;;;;;;8.83;3.03;;;4.60;99.90;;;;;;10353140;28;20236;-67
2023/01/30 16:31:03;;;;;;;9.50;4.03;;;4.60;99.90;;;;;;10352407;28;20282;-67
2023/01/30 16:36:25;;;;;;;4.47;2.47;;;4.40;99.90;;;;;;10347777;28;20232;-68
2023/01/30 16:41:38;;;;;;;9.97;3.07;;;4.40;99.90;;;;;;10323794;28;20931;-68
2023/01/30 16:46:58;;;;;;;6.90;2.50;;;4.40;99.90;;;;;;10353464;28;20236;-68
2023/01/30 16:52:01;;;;;;;8.40;4.03;;;4.60;99.90;;;;;;10351670;28;20230;-67
2023/01/30 16:57:02;;;;;;;11.87;4.70;;;4.60;99.90;;;;;;10346337;28;20241;-68
2023/01/30 17:02:06;;;;;;;9.83;4.70;;;4.70;99.90;;;;;;10356243;28;20263;-67
2023/01/30 17:07:06;;;;;;;11.53;4.80;;;4.70;99.90;;;;;;10346970;28;20276;-67
2023/01/30 17:12:30;;;;;;;6.47;4.13;;;4.70;99.90;;;;;;10344098;28;20775;-68
2023/01/30 17:17:30;;;;;;;8.67;5.17;;;4.80;99.90;;;;;;10343674;28;20225;-68
2023/01/30 17:22:31;;;;;;;5.07;3.70;;;4.90;99.90;;;;;;10357884;28;20458;-68
2023/01/30 17:27:32;;;;;;;8.17;3.80;;;4.90;99.90;;;;;;10342680;28;20306;-69
2023/01/30 17:32:36;;;;;;;5.60;3.27;;;4.90;99.90;;;;;;10350402;28;20220;-69
2023/01/30 17:37:36;;;;;;;7.33;3.47;;;4.90;99.90;;;;;;10349950;28;20221;-68
2023/01/30 17:42:37;;;;;;;8.83;3.00;;;5.00;99.90;;;;;;10342267;28;20234;-68
2023/01/30 17:47:38;;;;;;;11.00;3.53;;;5.10;99.90;;;;;;10331457;28;20562;-69
2023/01/30 17:52:39;;;;;;;7.67;3.00;;;5.10;99.90;;;;;;10338746;28;20338;-68
2023/01/30 17:57:42;;;;;;;8.57;3.10;;;5.10;99.90;;;;;;10348911;28;20251;-69
2023/01/30 18:02:43;;;;;;;6.17;3.10;;;5.10;99.90;;;;;;10344136;28;20225;-69
2023/01/30 18:07:45;;;;;;;8.20;3.00;;;5.10;99.90;;;;;;10348216;28;20226;-68
2023/01/30 18:12:45;;;;;;;8.57;3.10;;;5.20;99.90;;;;;;10342975;28;20701;-68
2023/01/30 18:17:48;;;;;;;5.90;3.00;;;5.20;99.90;;;;;;10342068;28;20211;-69
2023/01/30 18:22:49;;;;;;;9.23;3.00;;;5.20;99.90;;;;;;10345464;28;20292;-69
2023/01/30 18:27:49;;;;;;;8.73;3.23;;;5.20;99.90;;;;;;10350302;28;20214;-69
2023/01/30 18:32:50;;;;;;;9.20;3.50;;;5.00;99.90;;;;;;10352145;28;20230;-68
2023/01/30 18:37:51;;;;;;;9.33;3.40;;;5.10;99.90;;;;;;10351874;28;20267;-68
2023/01/30 18:42:51;;;;;;;9.73;3.20;;;5.20;99.90;;;;;;10357715;28;20334;-68
2023/01/30 18:47:53;;;;;;;11.80;3.20;;;5.20;99.90;;;;;;10334435;28;20778;-69
2023/01/30 18:52:53;;;;;;;8.07;3.03;;;5.20;99.90;;;;;;10364990;28;20227;-69
2023/01/30 18:57:58;;;;;;;8.30;3.17;;;5.30;99.90;;;;;;10356072;28;20217;-68
2023/01/30 19:02:58;;;;;;;11.33;3.53;;;5.30;99.90;;;;;;10350967;28;20233;-68
2023/01/30 19:07:59;;;;;;;10.57;3.50;;;5.30;99.90;;;;;;10350198;28;20221;-68
2023/01/30 19:18:18;;;;;;;7.93;3.13;;;5.30;99.90;;;;;;10355508;28;20217;-69
2023/01/30 19:23:19;;;;;;;12.13;3.13;;;5.30;99.90;;;;;;10349634;28;20214;-74
2023/01/30 19:28:19;;;;;;;8.90;4.40;;;5.40;99.90;;;;;;10355972;28;20591;-70
2023/01/30 19:33:20;;;;;;;12.73;4.80;;;5.40;99.90;;;;;;10354200;28;20226;-70
2023/01/30 19:38:21;;;;;;;8.57;5.10;;;5.20;99.90;;;;;;10345162;28;20247;-74
2023/01/30 19:43:21;;;;;;;7.27;4.47;;;5.20;99.90;;;;;;10354742;28;20225;-70
2023/01/30 19:48:22;;;;;;;10.87;4.73;;;5.10;99.90;;;;;;10335092;28;20224;-69
2023/01/30 19:53:22;;;;;;;6.63;4.00;;;5.10;99.90;;;;;;10346741;28;20236;-72
2023/01/30 19:58:23;;;;;;;7.77;4.00;;;5.10;99.90;;;;;;10347244;28;20713;-72
2023/01/30 20:03:23;;;;;;;9.17;4.50;;;5.20;99.90;;;;;;10337902;28;20253;-71
2023/01/30 20:08:24;;;;;;;7.87;4.20;;;5.20;99.90;;;;;;10345742;28;20689;-72
2023/01/30 20:13:24;;;;;;;12.37;4.53;;;5.20;99.90;;;;;;10349791;28;20218;-72
2023/01/30 20:18:25;;;;;;;8.93;4.20;;;5.20;99.90;;;;;;10352424;28;20221;-72
2023/01/30 20:23:25;;;;;;;11.00;2.90;;;5.20;99.90;;;;;;10347088;28;20276;-72
2023/01/30 20:28:26;;;;;;;9.57;2.93;;;5.20;99.90;;;;;;10362376;28;20687;-71
2023/01/30 20:33:29;;;;;;;10.13;3.03;;;5.30;99.90;;;;;;10354269;28;20234;-71
2023/01/30 20:38:35;;;;;;;10.73;3.83;;;5.30;99.90;;;;;;10354265;28;20226;-71
2023/01/30 20:43:38;;;;;;;8.27;2.80;;;5.30;99.90;;;;;;10346925;28;20345;-73
2023/01/30 20:48:39;;;;;;;16.77;3.13;;;5.40;99.90;;;;;;10359024;28;20642;-71
2023/01/30 20:53:46;;;;;;;11.80;2.83;;;5.40;99.90;;;;;;10320165;28;20235;-72
2023/01/30 20:58:47;;;;;;;11.13;3.10;;;5.50;99.90;;;;;;10357167;28;20217;-72
2023/01/30 21:03:51;;;;;;;13.43;3.87;;;5.50;99.90;;;;;;10348931;28;20217;-72
2023/01/30 21:08:52;;;;;;;8.83;4.03;;;5.50;99.90;;;;;;10358992;28;20284;-71
2023/01/30 21:13:52;;;;;;;8.87;4.27;;;5.50;99.90;;;;;;10346372;28;20262;-71
2023/01/30 21:18:57;;;;;;;9.47;4.50;;;5.40;99.90;;;;;;10344581;28;20307;-72
2023/01/30 21:24:02;;;;;;;10.53;3.80;;;5.30;99.90;;;;;;10347830;28;20227;-72
2023/01/30 21:29:05;;;;;;;9.73;4.43;;;5.30;99.90;;;;;;10356238;28;20217;-71
2023/01/30 21:34:06;;;;;;;9.17;3.83;;;5.30;99.90;;;;;;10339322;28;20307;-70
2023/01/30 21:44:36;;;;;;;13.03;4.47;;;5.30;99.90;;;;;;10351766;28;20260;-70
2023/01/30 21:49:36;;;;;;;12.17;3.67;;;5.30;99.90;;;;;;10344263;28;20233;-69
2023/01/30 21:54:37;;;;;;;9.93;4.23;;;5.30;99.90;;;;;;10346245;28;20224;-71
2023/01/30 21:59:37;;;;;;;9.07;3.33;;;5.40;99.90;;;;;;10348014;28;20609;-71
2023/01/30 22:04:38;;;;;;;8.17;3.30;;;5.30;99.90;;;;;;10344193;28;20228;-70
2023/01/30 22:09:38;;;;;;;7.10;3.00;;;5.40;99.90;;;;;;10355729;28;20602;-71
2023/01/30 22:14:39;;;;;;;10.20;3.67;;;5.40;99.90;;;;;;10350595;28;20715;-70
2023/01/30 22:19:40;;;;;;;10.50;3.83;;;5.40;99.90;;;;;;10356701;28;20217;-70
2023/01/30 22:24:41;;;;;;;10.23;3.13;;;5.40;99.90;;;;;;10347453;28;20600;-70
2023/01/30 22:29:42;;;;;;;9.47;3.40;;;5.40;99.90;;;;;;10352377;28;20313;-69
2023/01/30 22:34:42;;;;;;;11.07;2.60;;;5.50;99.90;;;;;;10363154;28;20236;-68
2023/01/30 22:39:43;;;;;;;13.07;3.07;;;5.50;99.90;;;;;;10356150;28;20765;-69
2023/01/30 22:44:46;;;;;;;12.17;3.70;;;5.50;99.90;;;;;;10339715;28;20229;-69
2023/01/30 22:49:47;;;;;;;11.23;2.90;;;5.50;99.90;;;;;;10353880;28;20716;-69
2023/01/30 22:54:47;;;;;;;10.73;2.70;;;5.40;99.90;;;;;;10360684;28;20316;-69
2023/01/30 22:59:50;;;;;;;14.47;3.33;;;5.40;99.90;;;;;;10347502;28;20226;-69
2023/01/30 23:04:51;;;;;;;13.97;3.13;;;5.30;99.90;;;;;;10348845;28;20763;-67
2023/01/30 23:09:51;;;;;;;10.83;2.77;;;5.30;99.90;;;;;;10357228;28;20313;-68
2023/01/30 23:14:52;;;;;;;13.10;2.97;;;5.20;99.90;;;;;;10334274;28;20712;-71
2023/01/30 23:19:53;;;;;;;12.77;4.10;;;5.20;99.90;;;;;;10353142;28;20217;-72
2023/01/30 23:24:54;;;;;;;11.90;4.00;;;5.10;99.90;;;;;;10350677;28;20222;-71
2023/01/30 23:29:54;;;;;;;10.97;3.70;;;5.10;99.90;;;;;;10362678;28;20222;-70
2023/01/30 23:34:56;;;;;;;15.03;4.37;;;5.10;99.90;;;;;;10351755;28;20225;-69
2023/01/30 23:39:56;;;;;;;10.73;3.40;;;5.10;99.90;;;;;;10350427;28;20272;-70
2023/01/30 23:44:57;;;;;;;8.20;3.07;;;5.00;99.90;;;;;;10352680;28;20970;-69
2023/01/30 23:49:57;;;;;;;11.77;3.00;;;4.90;99.90;;;;;;10350894;28;20263;-68
2023/01/30 23:54:58;;;;;;;10.70;3.07;;;4.80;99.90;;;;;;10350623;28;20673;-68
2023/01/30 23:59:58;;;;;;;15.90;3.50;;;4.60;99.90;;;;;;10349478;28;20213;-70
